sensor_id;sensor_type;location;lat;lon;timestamp;temperature;humidity
36654;DHT22;22650;49.350;20.898;2022-07-23T00:00:23;17.30;99.90
36654;DHT22;22650;49.350;20.898;2022-07-23T00:02:57;17.20;99.90
36654;DHT22;22650;49.350;20.898;2022-07-23T00:05:41;17.20;99.90
36654;DHT22;22650;49.350;20.898;2022-07-23T00:08:16;17.20;99.90
36654;DHT22;22650;49.350;20.898;2022-07-23T00:10:52;17.20;99.90
36654;DHT22;22650;49.350;20.898;2022-07-23T00:13:27;17.20;99.90
36654;DHT22;22650;49.350;20.898;2022-07-23T00:16:02;17.20;99.90
36654;DHT22;22650;49.350;20.898;2022-07-23T00:18:37;17.10;99.90
36654;DHT22;22650;49.350;20.898;2022-07-23T00:21:11;17.10;99.90
36654;DHT22;22650;49.350;20.898;2022-07-23T00:23:45;17.10;99.90
36654;DHT22;22650;49.350;20.898;2022-07-23T00:26:21;17.20;99.90
36654;DHT22;22650;49.350;20.898;2022-07-23T00:28:56;17.20;99.90
36654;DHT22;22650;49.350;20.898;2022-07-23T00:31:32;17.20;99.90
36654;DHT22;22650;49.350;20.898;2022-07-23T00:34:20;17.10;99.90
36654;DHT22;22650;49.350;20.898;2022-07-23T00:36:56;17.10;99.90
36654;DHT22;22650;49.350;20.898;2022-07-23T00:39:30;17.10;99.90
36654;DHT22;22650;49.350;20.898;2022-07-23T00:42:06;17.10;99.90
36654;DHT22;22650;49.350;20.898;2022-07-23T00:44:41;17.00;99.90
36654;DHT22;22650;49.350;20.898;2022-07-23T00:47:18;17.00;99.90
36654;DHT22;22650;49.350;20.898;2022-07-23T00:49:52;16.90;99.90
36654;DHT22;22650;49.350;20.898;2022-07-23T00:52:26;16.90;99.90
36654;DHT22;22650;49.350;20.898;2022-07-23T00:55:01;16.90;99.90
36654;DHT22;22650;49.350;20.898;2022-07-23T00:57:38;16.90;99.90
36654;DHT22;22650;49.350;20.898;2022-07-23T01:00:14;16.80;99.90
36654;DHT22;22650;49.350;20.898;2022-07-23T01:02:49;16.80;99.90
36654;DHT22;22650;49.350;20.898;2022-07-23T01:05:24;16.80;99.90
36654;DHT22;22650;49.350;20.898;2022-07-23T01:07:59;16.80;99.90
36654;DHT22;22650;49.350;20.898;2022-07-23T01:10:34;16.80;99.90
36654;DHT22;22650;49.350;20.898;2022-07-23T01:13:11;16.70;99.90
36654;DHT22;22650;49.350;20.898;2022-07-23T01:15:45;16.70;99.90
36654;DHT22;22650;49.350;20.898;2022-07-23T01:18:19;16.70;99.90
36654;DHT22;22650;49.350;20.898;2022-07-23T01:20:53;16.60;99.90
36654;DHT22;22650;49.350;20.898;2022-07-23T01:23:28;16.70;99.90
36654;DHT22;22650;49.350;20.898;2022-07-23T01:26:04;16.60;99.90
36654;DHT22;22650;49.350;20.898;2022-07-23T01:28:43;16.60;99.90
36654;DHT22;22650;49.350;20.898;2022-07-23T01:31:18;16.70;99.90
36654;DHT22;22650;49.350;20.898;2022-07-23T01:34:03;16.60;99.90
36654;DHT22;22650;49.350;20.898;2022-07-23T01:36:40;16.60;99.90
36654;DHT22;22650;49.350;20.898;2022-07-23T01:39:18;16.60;99.90
36654;DHT22;22650;49.350;20.898;2022-07-23T01:41:55;16.70;99.90
36654;DHT22;22650;49.350;20.898;2022-07-23T01:44:31;16.70;99.90
36654;DHT22;22650;49.350;20.898;2022-07-23T01:47:06;16.70;99.90
36654;DHT22;22650;49.350;20.898;2022-07-23T01:49:40;16.70;99.90
36654;DHT22;22650;49.350;20.898;2022-07-23T01:52:43;16.70;99.90
36654;DHT22;22650;49.350;20.898;2022-07-23T01:55:20;16.70;99.90
36654;DHT22;22650;49.350;20.898;2022-07-23T01:57:55;16.70;99.90
36654;DHT22;22650;49.350;20.898;2022-07-23T02:00:33;16.70;99.90
36654;DHT22;22650;49.350;20.898;2022-07-23T02:03:08;16.70;99.90
36654;DHT22;22650;49.350;20.898;2022-07-23T02:05:42;16.70;99.90
36654;DHT22;22650;49.350;20.898;2022-07-23T02:08:16;16.70;99.90
36654;DHT22;22650;49.350;20.898;2022-07-23T02:10:52;16.60;99.90
36654;DHT22;22650;49.350;20.898;2022-07-23T02:13:28;16.60;99.90
36654;DHT22;22650;49.350;20.898;2022-07-23T02:16:06;16.60;99.90
36654;DHT22;22650;49.350;20.898;2022-07-23T02:18:41;16.60;99.90
36654;DHT22;22650;49.350;20.898;2022-07-23T02:21:16;16.60;99.90
36654;DHT22;22650;49.350;20.898;2022-07-23T02:23:50;16.60;99.90
36654;DHT22;22650;49.350;20.898;2022-07-23T02:26:26;16.60;99.90
36654;DHT22;22650;49.350;20.898;2022-07-23T02:29:03;16.60;99.90
36654;DHT22;22650;49.350;20.898;2022-07-23T02:31:38;16.60;99.90
36654;DHT22;22650;49.350;20.898;2022-07-23T02:34:13;16.60;99.90
36654;DHT22;22650;49.350;20.898;2022-07-23T02:36:47;16.60;99.90
36654;DHT22;22650;49.350;20.898;2022-07-23T02:39:21;16.60;99.90
36654;DHT22;22650;49.350;20.898;2022-07-23T02:41:56;16.60;99.90
36654;DHT22;22650;49.350;20.898;2022-07-23T02:44:31;16.60;99.90
36654;DHT22;22650;49.350;20.898;2022-07-23T02:47:06;16.60;99.90
36654;DHT22;22650;49.350;20.898;2022-07-23T02:49:40;16.60;99.90
36654;DHT22;22650;49.350;20.898;2022-07-23T02:52:15;16.60;99.90
36654;DHT22;22650;49.350;20.898;2022-07-23T02:54:50;16.60;99.90
36654;DHT22;22650;49.350;20.898;2022-07-23T02:57:26;16.60;99.90
36654;DHT22;22650;49.350;20.898;2022-07-23T03:00:03;16.60;99.90
36654;DHT22;22650;49.350;20.898;2022-07-23T03:02:39;16.60;99.90
36654;DHT22;22650;49.350;20.898;2022-07-23T03:05:14;16.50;99.90
36654;DHT22;22650;49.350;20.898;2022-07-23T03:07:50;16.50;99.90
36654;DHT22;22650;49.350;20.898;2022-07-23T03:10:26;16.50;99.90
36654;DHT22;22650;49.350;20.898;2022-07-23T03:13:01;16.50;99.90
36654;DHT22;22650;49.350;20.898;2022-07-23T03:15:36;16.40;99.90
36654;DHT22;22650;49.350;20.898;2022-07-23T03:18:13;16.40;99.90
36654;DHT22;22650;49.350;20.898;2022-07-23T03:20:47;16.30;99.90
36654;DHT22;22650;49.350;20.898;2022-07-23T03:23:22;16.30;99.90
36654;DHT22;22650;49.350;20.898;2022-07-23T03:25:57;16.30;99.90
36654;DHT22;22650;49.350;20.898;2022-07-23T03:28:32;16.30;99.90
36654;DHT22;22650;49.350;20.898;2022-07-23T03:31:07;16.30;99.90
36654;DHT22;22650;49.350;20.898;2022-07-23T03:33:43;16.30;99.90
36654;DHT22;22650;49.350;20.898;2022-07-23T03:36:18;16.30;99.90
36654;DHT22;22650;49.350;20.898;2022-07-23T03:38:55;16.30;99.90
36654;DHT22;22650;49.350;20.898;2022-07-23T03:41:33;16.30;99.90
36654;DHT22;22650;49.350;20.898;2022-07-23T03:44:08;16.30;99.90
36654;DHT22;22650;49.350;20.898;2022-07-23T03:46:43;16.30;99.90
36654;DHT22;22650;49.350;20.898;2022-07-23T03:49:17;16.30;99.90
36654;DHT22;22650;49.350;20.898;2022-07-23T03:51:52;16.30;99.90
36654;DHT22;22650;49.350;20.898;2022-07-23T03:54:27;16.30;99.90
36654;DHT22;22650;49.350;20.898;2022-07-23T03:57:01;16.30;99.90
36654;DHT22;22650;49.350;20.898;2022-07-23T03:59:38;16.30;99.90
36654;DHT22;22650;49.350;20.898;2022-07-23T04:02:13;16.30;99.90
36654;DHT22;22650;49.350;20.898;2022-07-23T04:04:47;16.30;99.90
36654;DHT22;22650;49.350;20.898;2022-07-23T04:07:22;16.30;99.90
36654;DHT22;22650;49.350;20.898;2022-07-23T04:09:56;16.30;99.90
36654;DHT22;22650;49.350;20.898;2022-07-23T04:12:31;16.30;99.90
36654;DHT22;22650;49.350;20.898;2022-07-23T04:15:09;16.30;99.90
36654;DHT22;22650;49.350;20.898;2022-07-23T04:17:43;16.30;99.90
36654;DHT22;22650;49.350;20.898;2022-07-23T04:20:22;16.30;99.90
36654;DHT22;22650;49.350;20.898;2022-07-23T04:23:01;16.30;99.90
36654;DHT22;22650;49.350;20.898;2022-07-23T04:25:38;16.30;99.90
36654;DHT22;22650;49.350;20.898;2022-07-23T04:28:12;16.30;99.90
36654;DHT22;22650;49.350;20.898;2022-07-23T04:30:48;16.30;99.90
36654;DHT22;22650;49.350;20.898;2022-07-23T04:33:23;16.30;99.90
36654;DHT22;22650;49.350;20.898;2022-07-23T04:36:00;16.30;99.90
36654;DHT22;22650;49.350;20.898;2022-07-23T04:38:35;16.40;99.90
36654;DHT22;22650;49.350;20.898;2022-07-23T04:41:10;16.40;99.90
36654;DHT22;22650;49.350;20.898;2022-07-23T04:43:46;16.50;99.90
36654;DHT22;22650;49.350;20.898;2022-07-23T04:46:22;16.50;99.90
36654;DHT22;22650;49.350;20.898;2022-07-23T04:48:57;16.60;99.90
36654;DHT22;22650;49.350;20.898;2022-07-23T04:51:34;16.60;99.90
36654;DHT22;22650;49.350;20.898;2022-07-23T04:54:08;16.60;99.90
36654;DHT22;22650;49.350;20.898;2022-07-23T04:56:42;16.60;99.90
36654;DHT22;22650;49.350;20.898;2022-07-23T04:59:16;16.70;99.90
36654;DHT22;22650;49.350;20.898;2022-07-23T05:01:54;16.70;99.90
36654;DHT22;22650;49.350;20.898;2022-07-23T05:04:29;16.80;99.90
36654;DHT22;22650;49.350;20.898;2022-07-23T05:07:07;16.90;99.90
36654;DHT22;22650;49.350;20.898;2022-07-23T05:09:40;16.90;99.90
36654;DHT22;22650;49.350;20.898;2022-07-23T05:12:16;17.00;99.90
36654;DHT22;22650;49.350;20.898;2022-07-23T05:14:51;17.00;99.90
36654;DHT22;22650;49.350;20.898;2022-07-23T05:17:28;17.10;99.90
36654;DHT22;22650;49.350;20.898;2022-07-23T05:20:03;17.20;99.90
36654;DHT22;22650;49.350;20.898;2022-07-23T05:22:38;17.20;99.90
36654;DHT22;22650;49.350;20.898;2022-07-23T05:25:11;17.20;99.90
36654;DHT22;22650;49.350;20.898;2022-07-23T05:27:45;17.30;99.90
36654;DHT22;22650;49.350;20.898;2022-07-23T05:30:20;17.30;99.90
36654;DHT22;22650;49.350;20.898;2022-07-23T05:32:59;17.30;99.90
36654;DHT22;22650;49.350;20.898;2022-07-23T05:35:34;17.30;99.90
36654;DHT22;22650;49.350;20.898;2022-07-23T05:38:29;17.40;99.90
36654;DHT22;22650;49.350;20.898;2022-07-23T05:41:07;17.40;99.90
36654;DHT22;22650;49.350;20.898;2022-07-23T05:43:41;17.40;99.90
36654;DHT22;22650;49.350;20.898;2022-07-23T05:46:16;17.40;99.90
36654;DHT22;22650;49.350;20.898;2022-07-23T05:48:58;17.40;99.90
36654;DHT22;22650;49.350;20.898;2022-07-23T05:51:51;17.50;99.90
36654;DHT22;22650;49.350;20.898;2022-07-23T05:54:36;17.50;99.90
36654;DHT22;22650;49.350;20.898;2022-07-23T05:57:10;17.60;99.90
36654;DHT22;22650;49.350;20.898;2022-07-23T05:59:44;17.60;99.90
36654;DHT22;22650;49.350;20.898;2022-07-23T06:02:19;17.70;99.90
36654;DHT22;22650;49.350;20.898;2022-07-23T06:04:55;17.70;99.90
36654;DHT22;22650;49.350;20.898;2022-07-23T06:07:35;17.80;99.90
36654;DHT22;22650;49.350;20.898;2022-07-23T06:10:09;17.90;99.90
36654;DHT22;22650;49.350;20.898;2022-07-23T06:12:44;17.90;99.90
36654;DHT22;22650;49.350;20.898;2022-07-23T06:15:19;18.00;99.90
36654;DHT22;22650;49.350;20.898;2022-07-23T06:17:52;18.10;99.90
36654;DHT22;22650;49.350;20.898;2022-07-23T06:20:29;18.20;99.90
36654;DHT22;22650;49.350;20.898;2022-07-23T06:23:03;18.40;99.90
36654;DHT22;22650;49.350;20.898;2022-07-23T06:25:39;18.50;99.90
36654;DHT22;22650;49.350;20.898;2022-07-23T06:28:14;18.60;99.90
36654;DHT22;22650;49.350;20.898;2022-07-23T06:30:49;18.70;99.90
36654;DHT22;22650;49.350;20.898;2022-07-23T06:33:25;18.90;99.90
36654;DHT22;22650;49.350;20.898;2022-07-23T06:36:01;19.00;99.90
36654;DHT22;22650;49.350;20.898;2022-07-23T06:38:38;19.20;99.90
36654;DHT22;22650;49.350;20.898;2022-07-23T06:41:13;19.40;99.90
36654;DHT22;22650;49.350;20.898;2022-07-23T06:43:49;19.50;99.90
36654;DHT22;22650;49.350;20.898;2022-07-23T06:46:23;19.70;99.90
36654;DHT22;22650;49.350;20.898;2022-07-23T06:48:58;19.80;99.90
36654;DHT22;22650;49.350;20.898;2022-07-23T06:51:35;19.90;99.90
36654;DHT22;22650;49.350;20.898;2022-07-23T06:54:09;20.10;99.90
36654;DHT22;22650;49.350;20.898;2022-07-23T06:56:43;20.20;99.90
36654;DHT22;22650;49.350;20.898;2022-07-23T06:59:18;20.40;99.90
36654;DHT22;22650;49.350;20.898;2022-07-23T07:01:53;20.50;99.90
36654;DHT22;22650;49.350;20.898;2022-07-23T07:04:30;20.60;99.90
36654;DHT22;22650;49.350;20.898;2022-07-23T07:07:06;20.80;99.90
36654;DHT22;22650;49.350;20.898;2022-07-23T07:09:40;21.00;99.90
36654;DHT22;22650;49.350;20.898;2022-07-23T07:12:17;21.10;99.90
36654;DHT22;22650;49.350;20.898;2022-07-23T07:14:51;21.30;99.90
36654;DHT22;22650;49.350;20.898;2022-07-23T07:17:29;21.50;99.90
36654;DHT22;22650;49.350;20.898;2022-07-23T07:20:04;21.60;99.90
36654;DHT22;22650;49.350;20.898;2022-07-23T07:22:41;21.80;99.90
36654;DHT22;22650;49.350;20.898;2022-07-23T07:25:15;22.00;99.90
36654;DHT22;22650;49.350;20.898;2022-07-23T07:27:49;22.20;99.90
36654;DHT22;22650;49.350;20.898;2022-07-23T07:30:24;22.40;99.90
36654;DHT22;22650;49.350;20.898;2022-07-23T07:33:05;22.60;99.90
36654;DHT22;22650;49.350;20.898;2022-07-23T07:35:39;22.80;99.90
36654;DHT22;22650;49.350;20.898;2022-07-23T07:38:16;23.10;99.90
36654;DHT22;22650;49.350;20.898;2022-07-23T07:40:50;23.30;99.90
36654;DHT22;22650;49.350;20.898;2022-07-23T07:43:24;23.60;99.90
36654;DHT22;22650;49.350;20.898;2022-07-23T07:45:58;23.90;99.90
36654;DHT22;22650;49.350;20.898;2022-07-23T07:48:32;24.20;99.90
36654;DHT22;22650;49.350;20.898;2022-07-23T07:51:14;24.40;99.90
36654;DHT22;22650;49.350;20.898;2022-07-23T07:53:51;24.70;99.90
36654;DHT22;22650;49.350;20.898;2022-07-23T07:56:26;25.00;99.90
36654;DHT22;22650;49.350;20.898;2022-07-23T07:59:01;25.20;99.90
36654;DHT22;22650;49.350;20.898;2022-07-23T08:01:36;25.50;99.90
36654;DHT22;22650;49.350;20.898;2022-07-23T08:04:11;25.90;99.90
36654;DHT22;22650;49.350;20.898;2022-07-23T08:06:46;26.20;99.90
36654;DHT22;22650;49.350;20.898;2022-07-23T08:09:23;26.50;99.90
36654;DHT22;22650;49.350;20.898;2022-07-23T08:11:57;26.80;99.90
36654;DHT22;22650;49.350;20.898;2022-07-23T08:14:32;27.10;99.90
36654;DHT22;22650;49.350;20.898;2022-07-23T08:17:06;27.40;99.90
36654;DHT22;22650;49.350;20.898;2022-07-23T08:19:46;27.70;99.90
36654;DHT22;22650;49.350;20.898;2022-07-23T08:22:21;28.10;99.90
36654;DHT22;22650;49.350;20.898;2022-07-23T08:24:56;28.40;99.90
36654;DHT22;22650;49.350;20.898;2022-07-23T08:27:32;28.70;99.90
36654;DHT22;22650;49.350;20.898;2022-07-23T08:30:10;29.00;99.90
36654;DHT22;22650;49.350;20.898;2022-07-23T08:32:48;29.40;99.90
36654;DHT22;22650;49.350;20.898;2022-07-23T08:35:26;29.70;99.90
36654;DHT22;22650;49.350;20.898;2022-07-23T08:38:03;30.00;99.90
36654;DHT22;22650;49.350;20.898;2022-07-23T08:40:41;30.20;99.90
36654;DHT22;22650;49.350;20.898;2022-07-23T08:43:20;30.50;99.90
36654;DHT22;22650;49.350;20.898;2022-07-23T08:45:56;30.80;99.90
36654;DHT22;22650;49.350;20.898;2022-07-23T08:48:35;31.10;99.90
36654;DHT22;22650;49.350;20.898;2022-07-23T08:51:11;31.40;99.90
36654;DHT22;22650;49.350;20.898;2022-07-23T08:53:45;31.50;99.90
36654;DHT22;22650;49.350;20.898;2022-07-23T08:56:23;31.50;99.90
36654;DHT22;22650;49.350;20.898;2022-07-23T08:59:00;31.70;99.90
36654;DHT22;22650;49.350;20.898;2022-07-23T09:01:35;31.90;99.90
36654;DHT22;22650;49.350;20.898;2022-07-23T09:04:10;32.20;99.90
36654;DHT22;22650;49.350;20.898;2022-07-23T09:06:45;32.50;99.90
36654;DHT22;22650;49.350;20.898;2022-07-23T09:09:21;32.70;99.90
36654;DHT22;22650;49.350;20.898;2022-07-23T09:12:06;32.90;99.90
36654;DHT22;22650;49.350;20.898;2022-07-23T09:14:43;33.30;96.50
36654;DHT22;22650;49.350;20.898;2022-07-23T09:17:19;33.60;98.10
36654;DHT22;22650;49.350;20.898;2022-07-23T09:20:07;33.90;93.80
36654;DHT22;22650;49.350;20.898;2022-07-23T09:22:45;34.10;91.90
36654;DHT22;22650;49.350;20.898;2022-07-23T09:25:19;34.20;86.90
36654;DHT22;22650;49.350;20.898;2022-07-23T09:27:56;34.40;89.10
36654;DHT22;22650;49.350;20.898;2022-07-23T09:30:32;34.50;84.50
36654;DHT22;22650;49.350;20.898;2022-07-23T09:33:10;34.60;79.50
36654;DHT22;22650;49.350;20.898;2022-07-23T09:35:48;34.70;81.00
36654;DHT22;22650;49.350;20.898;2022-07-23T09:38:24;35.00;77.30
36654;DHT22;22650;49.350;20.898;2022-07-23T09:41:06;35.10;75.70
36654;DHT22;22650;49.350;20.898;2022-07-23T09:43:43;35.00;71.90
36654;DHT22;22650;49.350;20.898;2022-07-23T09:46:18;35.20;73.50
36654;DHT22;22650;49.350;20.898;2022-07-23T09:48:54;35.10;74.10
36654;DHT22;22650;49.350;20.898;2022-07-23T09:51:29;35.20;73.30
36654;DHT22;22650;49.350;20.898;2022-07-23T09:54:24;35.30;70.70
36654;DHT22;22650;49.350;20.898;2022-07-23T09:57:01;35.50;73.60
36654;DHT22;22650;49.350;20.898;2022-07-23T09:59:38;35.50;72.50
36654;DHT22;22650;49.350;20.898;2022-07-23T10:02:13;35.50;69.70
36654;DHT22;22650;49.350;20.898;2022-07-23T10:05:09;35.60;70.50
36654;DHT22;22650;49.350;20.898;2022-07-23T10:08:13;35.90;72.50
36654;DHT22;22650;49.350;20.898;2022-07-23T10:11:09;36.30;70.60
36654;DHT22;22650;49.350;20.898;2022-07-23T10:13:45;36.50;69.10
36654;DHT22;22650;49.350;20.898;2022-07-23T10:16:51;36.70;69.70
36654;DHT22;22650;49.350;20.898;2022-07-23T10:19:25;37.00;67.80
36654;DHT22;22650;49.350;20.898;2022-07-23T10:22:02;37.20;66.10
36654;DHT22;22650;49.350;20.898;2022-07-23T10:25:06;37.20;65.50
36654;DHT22;22650;49.350;20.898;2022-07-23T10:28:04;37.30;66.00
36654;DHT22;22650;49.350;20.898;2022-07-23T10:30:45;37.40;63.20
36654;DHT22;22650;49.350;20.898;2022-07-23T10:33:32;37.40;60.50
36654;DHT22;22650;49.350;20.898;2022-07-23T10:36:15;37.40;60.70
36654;DHT22;22650;49.350;20.898;2022-07-23T10:39:05;37.50;62.20
36654;DHT22;22650;49.350;20.898;2022-07-23T10:41:47;37.50;63.00
36654;DHT22;22650;49.350;20.898;2022-07-23T10:44:22;37.40;61.90
36654;DHT22;22650;49.350;20.898;2022-07-23T10:47:04;37.30;61.90
36654;DHT22;22650;49.350;20.898;2022-07-23T10:49:51;37.20;60.50
36654;DHT22;22650;49.350;20.898;2022-07-23T10:52:33;36.70;59.60
36654;DHT22;22650;49.350;20.898;2022-07-23T10:55:48;36.70;62.50
36654;DHT22;22650;49.350;20.898;2022-07-23T10:58:49;36.60;65.50
36654;DHT22;22650;49.350;20.898;2022-07-23T11:01:34;36.60;66.90
36654;DHT22;22650;49.350;20.898;2022-07-23T11:04:10;36.50;61.20
36654;DHT22;22650;49.350;20.898;2022-07-23T11:07:08;36.50;64.30
36654;DHT22;22650;49.350;20.898;2022-07-23T11:09:51;36.70;59.20
36654;DHT22;22650;49.350;20.898;2022-07-23T11:12:34;37.00;64.90
36654;DHT22;22650;49.350;20.898;2022-07-23T11:15:12;36.80;61.60
36654;DHT22;22650;49.350;20.898;2022-07-23T11:17:59;36.90;63.70
36654;DHT22;22650;49.350;20.898;2022-07-23T11:20:34;36.90;64.40
36654;DHT22;22650;49.350;20.898;2022-07-23T11:23:08;37.00;66.20
36654;DHT22;22650;49.350;20.898;2022-07-23T11:25:42;37.20;64.50
36654;DHT22;22650;49.350;20.898;2022-07-23T11:28:18;37.10;64.70
36654;DHT22;22650;49.350;20.898;2022-07-23T11:31:17;37.30;66.80
36654;DHT22;22650;49.350;20.898;2022-07-23T11:37:09;37.70;66.40
36654;DHT22;22650;49.350;20.898;2022-07-23T11:39:46;37.90;64.10
36654;DHT22;22650;49.350;20.898;2022-07-23T11:42:24;38.10;64.10
36654;DHT22;22650;49.350;20.898;2022-07-23T11:45:05;38.20;60.70
36654;DHT22;22650;49.350;20.898;2022-07-23T11:47:41;38.20;60.50
36654;DHT22;22650;49.350;20.898;2022-07-23T11:50:16;38.10;60.60
36654;DHT22;22650;49.350;20.898;2022-07-23T11:52:50;38.10;62.70
36654;DHT22;22650;49.350;20.898;2022-07-23T11:55:25;37.80;61.00
36654;DHT22;22650;49.350;20.898;2022-07-23T11:58:01;37.70;60.60
36654;DHT22;22650;49.350;20.898;2022-07-23T12:00:40;37.80;61.50
36654;DHT22;22650;49.350;20.898;2022-07-23T12:03:17;37.90;63.90
36654;DHT22;22650;49.350;20.898;2022-07-23T12:05:56;38.00;60.20
36654;DHT22;22650;49.350;20.898;2022-07-23T12:08:31;38.20;62.70
36654;DHT22;22650;49.350;20.898;2022-07-23T12:11:06;38.40;61.50
36654;DHT22;22650;49.350;20.898;2022-07-23T12:13:41;38.60;60.60
36654;DHT22;22650;49.350;20.898;2022-07-23T12:16:16;38.60;61.50
36654;DHT22;22650;49.350;20.898;2022-07-23T12:18:53;38.70;60.50
36654;DHT22;22650;49.350;20.898;2022-07-23T12:21:28;38.80;61.30
36654;DHT22;22650;49.350;20.898;2022-07-23T12:24:06;38.70;61.10
36654;DHT22;22650;49.350;20.898;2022-07-23T12:27:07;38.70;60.00
36654;DHT22;22650;49.350;20.898;2022-07-23T12:29:42;38.70;62.50
36654;DHT22;22650;49.350;20.898;2022-07-23T12:32:20;38.80;61.10
36654;DHT22;22650;49.350;20.898;2022-07-23T12:35:07;38.90;64.20
36654;DHT22;22650;49.350;20.898;2022-07-23T12:37:43;39.00;58.50
36654;DHT22;22650;49.350;20.898;2022-07-23T12:40:20;38.90;59.70
36654;DHT22;22650;49.350;20.898;2022-07-23T12:42:57;38.50;58.20
36654;DHT22;22650;49.350;20.898;2022-07-23T12:45:43;38.30;60.10
36654;DHT22;22650;49.350;20.898;2022-07-23T12:48:23;38.20;60.20
36654;DHT22;22650;49.350;20.898;2022-07-23T12:51:03;38.10;61.30
36654;DHT22;22650;49.350;20.898;2022-07-23T12:53:38;38.30;61.00
36654;DHT22;22650;49.350;20.898;2022-07-23T12:56:15;38.30;58.90
36654;DHT22;22650;49.350;20.898;2022-07-23T12:58:55;38.40;57.80
36654;DHT22;22650;49.350;20.898;2022-07-23T13:01:33;38.30;58.20
36654;DHT22;22650;49.350;20.898;2022-07-23T13:04:09;38.30;60.30
36654;DHT22;22650;49.350;20.898;2022-07-23T13:06:51;37.90;59.20
36654;DHT22;22650;49.350;20.898;2022-07-23T13:09:29;37.60;59.40
36654;DHT22;22650;49.350;20.898;2022-07-23T13:12:13;37.30;59.90
36654;DHT22;22650;49.350;20.898;2022-07-23T13:14:50;37.10;61.70
36654;DHT22;22650;49.350;20.898;2022-07-23T13:17:24;37.00;62.30
36654;DHT22;22650;49.350;20.898;2022-07-23T13:19:58;36.70;63.30
36654;DHT22;22650;49.350;20.898;2022-07-23T13:22:33;36.40;63.90
36654;DHT22;22650;49.350;20.898;2022-07-23T13:25:08;36.20;64.90
36654;DHT22;22650;49.350;20.898;2022-07-23T13:27:43;36.10;64.90
36654;DHT22;22650;49.350;20.898;2022-07-23T13:30:17;35.70;65.10
36654;DHT22;22650;49.350;20.898;2022-07-23T13:32:56;35.30;65.30
36654;DHT22;22650;49.350;20.898;2022-07-23T13:35:33;34.80;65.00
36654;DHT22;22650;49.350;20.898;2022-07-23T13:38:09;34.50;65.20
36654;DHT22;22650;49.350;20.898;2022-07-23T13:40:47;34.10;66.10
36654;DHT22;22650;49.350;20.898;2022-07-23T13:43:23;33.80;67.50
36654;DHT22;22650;49.350;20.898;2022-07-23T13:46:09;33.50;68.60
36654;DHT22;22650;49.350;20.898;2022-07-23T13:48:50;33.20;69.30
36654;DHT22;22650;49.350;20.898;2022-07-23T13:51:33;32.90;71.30
36654;DHT22;22650;49.350;20.898;2022-07-23T13:54:25;32.70;72.10
36654;DHT22;22650;49.350;20.898;2022-07-23T13:57:03;32.50;73.40
36654;DHT22;22650;49.350;20.898;2022-07-23T13:59:39;32.30;73.80
36654;DHT22;22650;49.350;20.898;2022-07-23T14:02:19;32.00;73.30
36654;DHT22;22650;49.350;20.898;2022-07-23T14:05:10;31.70;74.00
36654;DHT22;22650;49.350;20.898;2022-07-23T14:08:15;31.50;75.00
36654;DHT22;22650;49.350;20.898;2022-07-23T14:10:57;31.40;77.80
36654;DHT22;22650;49.350;20.898;2022-07-23T14:13:33;31.40;78.80
36654;DHT22;22650;49.350;20.898;2022-07-23T14:16:10;31.30;79.10
36654;DHT22;22650;49.350;20.898;2022-07-23T14:18:45;31.20;78.60
36654;DHT22;22650;49.350;20.898;2022-07-23T14:21:19;31.30;79.60
36654;DHT22;22650;49.350;20.898;2022-07-23T14:23:54;31.40;77.70
36654;DHT22;22650;49.350;20.898;2022-07-23T14:26:32;31.50;77.30
36654;DHT22;22650;49.350;20.898;2022-07-23T14:29:07;31.50;76.20
36654;DHT22;22650;49.350;20.898;2022-07-23T14:31:41;31.40;76.10
36654;DHT22;22650;49.350;20.898;2022-07-23T14:34:16;31.30;75.40
36654;DHT22;22650;49.350;20.898;2022-07-23T14:37:00;31.30;76.20
36654;DHT22;22650;49.350;20.898;2022-07-23T14:39:37;31.30;77.80
36654;DHT22;22650;49.350;20.898;2022-07-23T14:42:13;31.30;77.70
36654;DHT22;22650;49.350;20.898;2022-07-23T14:44:51;31.40;78.50
36654;DHT22;22650;49.350;20.898;2022-07-23T14:47:29;31.50;77.10
36654;DHT22;22650;49.350;20.898;2022-07-23T14:50:05;31.40;77.50
36654;DHT22;22650;49.350;20.898;2022-07-23T14:52:40;31.40;77.80
36654;DHT22;22650;49.350;20.898;2022-07-23T14:55:15;31.30;77.80
36654;DHT22;22650;49.350;20.898;2022-07-23T14:57:53;31.30;78.30
36654;DHT22;22650;49.350;20.898;2022-07-23T15:00:28;31.30;78.40
36654;DHT22;22650;49.350;20.898;2022-07-23T15:03:05;31.10;79.40
36654;DHT22;22650;49.350;20.898;2022-07-23T15:05:45;30.80;80.10
36654;DHT22;22650;49.350;20.898;2022-07-23T15:08:20;30.60;80.90
36654;DHT22;22650;49.350;20.898;2022-07-23T15:10:55;30.40;81.70
36654;DHT22;22650;49.350;20.898;2022-07-23T15:13:31;30.30;81.90
36654;DHT22;22650;49.350;20.898;2022-07-23T15:16:06;30.10;81.10
36654;DHT22;22650;49.350;20.898;2022-07-23T15:18:42;30.00;82.50
36654;DHT22;22650;49.350;20.898;2022-07-23T15:21:19;29.80;81.90
36654;DHT22;22650;49.350;20.898;2022-07-23T15:23:54;29.80;83.40
36654;DHT22;22650;49.350;20.898;2022-07-23T15:26:29;29.70;86.10
36654;DHT22;22650;49.350;20.898;2022-07-23T15:29:06;29.50;83.10
36654;DHT22;22650;49.350;20.898;2022-07-23T15:31:41;29.40;85.80
36654;DHT22;22650;49.350;20.898;2022-07-23T15:34:19;29.30;86.00
36654;DHT22;22650;49.350;20.898;2022-07-23T15:36:54;29.20;88.10
36654;DHT22;22650;49.350;20.898;2022-07-23T15:39:28;29.00;90.50
36654;DHT22;22650;49.350;20.898;2022-07-23T15:42:06;28.80;91.30
36654;DHT22;22650;49.350;20.898;2022-07-23T15:44:46;28.60;92.50
36654;DHT22;22650;49.350;20.898;2022-07-23T15:47:21;28.30;98.40
36654;DHT22;22650;49.350;20.898;2022-07-23T15:49:57;28.20;99.90
36654;DHT22;22650;49.350;20.898;2022-07-23T15:52:32;28.00;99.90
36654;DHT22;22650;49.350;20.898;2022-07-23T15:55:11;27.70;99.90
36654;DHT22;22650;49.350;20.898;2022-07-23T15:57:49;27.50;99.90
36654;DHT22;22650;49.350;20.898;2022-07-23T16:00:29;27.40;99.90
36654;DHT22;22650;49.350;20.898;2022-07-23T16:03:06;27.10;99.90
36654;DHT22;22650;49.350;20.898;2022-07-23T16:05:42;26.90;99.90
36654;DHT22;22650;49.350;20.898;2022-07-23T16:08:18;26.70;99.90
36654;DHT22;22650;49.350;20.898;2022-07-23T16:10:53;26.60;99.90
36654;DHT22;22650;49.350;20.898;2022-07-23T16:13:30;26.40;99.90
36654;DHT22;22650;49.350;20.898;2022-07-23T16:16:08;26.30;99.90
36654;DHT22;22650;49.350;20.898;2022-07-23T16:18:46;26.10;99.90
36654;DHT22;22650;49.350;20.898;2022-07-23T16:21:24;25.80;99.90